Jalma Topic — A8IQ6 — position and weather

sailwx.info

Track history (hours):
 
Tides and Currents Weather Stations Pressure Air Temp Water Temp Dewpoint Dewpoint Depression Visibility Wind Speed Wind Dir Waves Ship Positions

Jalma Topic

Last reported at 2015-Feb-25 09:24 UTC. Time now 2015-Feb-28 17:28 UTC.
Position N 48°17' W 125°38'.

Length 183 m; draft 10.1 m.

Type: Cargo ship. MMSI: 636012871.

Date/timePositionNaut miles runAvg speedWind from/ knotsBaromVisibWave heightAir tempDewpointWater temp
2015-Feb-25 09:24N 48°17' W 125°38'1112.7
2015-Feb-25 08:33N 48°23' W 125°25'1212.4
2015-Feb-25 07:33N 48°30' W 125°10'1313.0
2015-Feb-25 06:33N 48°31' W 124°50'1312.6
2015-Feb-25 05:33N 48°27' W 124°32'1312.7
2015-Feb-25 04:33N 48°23' W 124°14'1212.4
2015-Feb-25 03:33N 48°18' W 123°57'1212.2
2015-Feb-25 02:33N 48°16' W 123°39'1010.3
2015-Feb-25 01:34N 48°21' W 123°25'9 8.8
2015-Feb-25 00:33N 48°25' W 123°13'1414.0
2015-Feb-24 23:33N 48°39' W 123°14'1212.0
2015-Feb-24 22:34N 48°47' W 123°01'1313.3
2015-Feb-24 21:33N 48°57' W 123°14'1212.0
2015-Feb-24 20:33N 49°08' W 123°23'1212.3
2015-Feb-24 19:33N 49°19' W 123°16'8 7.7
2015-Feb-24 18:33N 49°18' W 123°04'0 0.0
2015-Feb-24 17:32N 49°18' W 123°04'0 0.1
2015-Feb-24 16:32N 49°18' W 123°04'0 0.0
2015-Feb-24 15:32N 49°18' W 123°04'0 0.0
2015-Feb-24 14:31N 49°18' W 123°04'0 0.0
2015-Feb-24 13:31N 49°18' W 123°04'0 0.2
2015-Feb-24 12:31N 49°18' W 123°04'0 0.1
2015-Feb-24 11:31N 49°18' W 123°04'0 0.0
2015-Feb-24 10:31N 49°18' W 123°04'0 0.0
2015-Feb-24 09:31N 49°18' W 123°04'0 0.0
2015-Feb-24 08:31N 49°18' W 123°04'0 0.0
2015-Feb-24 07:31N 49°18' W 123°04'0 0.1
2015-Feb-24 06:31N 49°18' W 123°04'0 0.2
2015-Feb-24 05:31N 49°18' W 123°04'0 0.0
2015-Feb-24 04:31N 49°18' W 123°04'0 0.0
2015-Feb-24 03:28N 49°18' W 123°04'0 0.0
2015-Feb-24 02:31N 49°18' W 123°04'0 0.0
2015-Feb-24 01:31N 49°18' W 123°04'0 0.1
2015-Feb-24 00:31N 49°18' W 123°04'0 0.1
2015-Feb-23 23:31N 49°18' W 123°04'0 0.1
2015-Feb-23 22:31N 49°18' W 123°04'0 0.2
2015-Feb-23 21:31N 49°18' W 123°04'0 0.0
2015-Feb-23 20:31N 49°18' W 123°04'0 0.0
2015-Feb-23 19:31N 49°18' W 123°04'0 0.0
2015-Feb-23 18:33N 49°18' W 123°04'1 0.6
2015-Feb-23 17:31N 49°17' W 123°05'0 0.0
2015-Feb-23 16:31N 49°17' W 123°05'0 0.0
2015-Feb-23 15:31N 49°17' W 123°05'0 0.0
2015-Feb-23 14:31N 49°17' W 123°05'0 0.0
2015-Feb-23 13:31N 49°17' W 123°05'0 0.0
2015-Feb-23 12:31N 49°17' W 123°05'0 0.0
2015-Feb-23 11:31N 49°17' W 123°05'0 0.0
2015-Feb-23 10:31N 49°17' W 123°05'0 0.0
2015-Feb-23 09:31N 49°17' W 123°05'0 0.0
2015-Feb-23 08:31N 49°17' W 123°05'0 0.0
2015-Feb-23 07:31N 49°17' W 123°05'0 0.0
2015-Feb-23 06:31N 49°17' W 123°05'0 0.0
2015-Feb-23 05:31N 49°17' W 123°05'0 0.0
2015-Feb-23 04:31N 49°17' W 123°05'0 0.0
2015-Feb-23 03:31N 49°17' W 123°05'0 0.0
2015-Feb-23 02:31N 49°17' W 123°05'0 0.0
2015-Feb-23 01:31N 49°17' W 123°05'0 0.0
2015-Feb-23 00:31N 49°17' W 123°05'0 0.0
2015-Feb-22 23:31N 49°17' W 123°05'0 0.0
2015-Feb-22 22:31N 49°17' W 123°05'0 0.0
2015-Feb-22 21:31N 49°17' W 123°05'0 0.3
2015-Feb-22 20:33N 49°18' W 123°05'4 4.1
2015-Feb-22 19:32N 49°18' W 123°11'0 0.1
2015-Feb-22 18:32N 49°18' W 123°11'0 0.1
2015-Feb-22 17:29N 49°19' W 123°11'0 0.0
2015-Feb-22 16:32N 49°19' W 123°11'0 0.0
2015-Feb-22 15:32N 49°19' W 123°11'0 0.0
2015-Feb-22 14:32N 49°19' W 123°11'0 0.0
2015-Feb-22 13:32N 49°19' W 123°11'0 0.0
2015-Feb-22 12:32N 49°19' W 123°11'0 0.0
2015-Feb-22 11:32N 49°19' W 123°11'0 0.0
2015-Feb-22 10:32N 49°19' W 123°11'0 0.0
2015-Feb-22 09:32N 49°18' W 123°11'0 0.1
2015-Feb-22 08:26N 49°18' W 123°11'0 0.1
2015-Feb-22 07:32N 49°18' W 123°11'0 0.1
2015-Feb-22 06:32N 49°18' W 123°11'0 0.1
2015-Feb-22 05:32N 49°19' W 123°11'0 0.0
2015-Feb-22 04:32N 49°19' W 123°11'0 0.0
2015-Feb-22 03:32N 49°19' W 123°11'0 0.0
2015-Feb-22 02:32N 49°19' W 123°11'0 0.0
2015-Feb-22 01:32N 49°19' W 123°11'0 0.0
2015-Feb-22 00:32N 49°19' W 123°11'0 0.0
2015-Feb-21 23:32N 49°19' W 123°11'0 0.0
2015-Feb-21 22:32N 49°19' W 123°11'0 0.0
2015-Feb-21 21:32N 49°19' W 123°11'0 0.1
2015-Feb-21 20:32N 49°18' W 123°11'0 0.0
2015-Feb-21 19:32N 49°18' W 123°11'0 0.1
2015-Feb-21 18:32N 49°18' W 123°11'0 0.1
2015-Feb-21 17:32N 49°19' W 123°11'0 0.0
2015-Feb-21 16:32N 49°19' W 123°11'0 0.1
2015-Feb-21 15:32N 49°18' W 123°11'0 0.0
2015-Feb-21 14:32N 49°18' W 123°11'0 0.0
2015-Feb-21 13:32N 49°18' W 123°11'0 0.0
2015-Feb-21 12:32N 49°18' W 123°11'0 0.0
2015-Feb-21 11:32N 49°19' W 123°11'0 0.0
2015-Feb-21 10:32N 49°19' W 123°11'0 0.0
2015-Feb-21 09:32N 49°19' W 123°11'0 0.0
2015-Feb-21 08:32N 49°19' W 123°11'0 0.2
2015-Feb-21 07:32N 49°18' W 123°11'0 0.0
2015-Feb-21 06:32N 49°18' W 123°11'0 0.1
2015-Feb-21 05:29N 49°18' W 123°11'0 0.1
2015-Feb-21 04:32N 49°19' W 123°11'0 0.1
2015-Feb-21 03:32N 49°18' W 123°11'0 0.0
2015-Feb-21 02:32N 49°18' W 123°11'0 0.0
2015-Feb-21 01:32N 49°18' W 123°11'0 0.0
2015-Feb-21 00:32N 49°18' W 123°11'0 0.0
2015-Feb-20 23:29N 49°18' W 123°11'0 0.0
2015-Feb-20 22:32N 49°18' W 123°11'0 0.0
2015-Feb-20 21:32N 49°18' W 123°11'0 0.0
2015-Feb-20 20:32N 49°18' W 123°11'0 0.0
2015-Feb-20 19:32N 49°18' W 123°11'0 0.1
2015-Feb-20 18:32N 49°18' W 123°11'0 0.0
2015-Feb-20 17:32N 49°18' W 123°11'0 0.0
2015-Feb-20 16:29N 49°18' W 123°11'0 0.0
2015-Feb-20 15:32N 49°18' W 123°11'0 0.0
2015-Feb-20 14:32N 49°18' W 123°11'0 0.1
2015-Feb-20 13:32N 49°18' W 123°11'0 0.0
2015-Feb-20 12:32N 49°18' W 123°11'0 0.0
2015-Feb-20 11:32N 49°18' W 123°11'0 0.0
2015-Feb-20 10:32N 49°18' W 123°11'0 0.0
2015-Feb-20 09:32N 49°18' W 123°11'0 0.0
2015-Feb-20 08:32N 49°18' W 123°11'0 0.0
2015-Feb-20 07:32N 49°18' W 123°11'0 0.1
2015-Feb-20 06:29N 49°18' W 123°11'0 0.1
2015-Feb-20 05:29N 49°18' W 123°11'0 0.0
2015-Feb-20 04:32N 49°18' W 123°11'0 0.1
2015-Feb-20 03:32N 49°18' W 123°11'0 0.0
2015-Feb-20 02:29N 49°18' W 123°11'0 0.0
2015-Feb-20 01:29N 49°18' W 123°11'0 0.0
2015-Feb-20 00:32N 49°18' W 123°11'0 0.0
2015-Feb-19 23:32N 49°18' W 123°11'0 0.0
2015-Feb-19 22:32N 49°18' W 123°11'0 0.0
2015-Feb-19 21:32N 49°18' W 123°11'0 0.1
2015-Feb-19 20:32N 49°19' W 123°11'0 0.0
2015-Feb-19 19:32N 49°18' W 123°11'0 0.1
2015-Feb-19 18:32N 49°18' W 123°11'0 0.0
2015-Feb-19 17:32N 49°18' W 123°11'0 0.0
2015-Feb-19 16:32N 49°18' W 123°11'0 0.0
2015-Feb-19 15:32N 49°18' W 123°11'0 0.0
2015-Feb-19 14:32N 49°18' W 123°11'0 0.1
2015-Feb-19 13:32N 49°18' W 123°11'0 0.2
2015-Feb-19 12:32N 49°18' W 123°11'0 0.0
2015-Feb-19 11:32N 49°18' W 123°11'0 0.0
2015-Feb-19 10:32N 49°19' W 123°11'0 0.0
2015-Feb-19 09:32N 49°18' W 123°11'0 0.0
2015-Feb-19 08:32N 49°18' W 123°11'0 0.0
2015-Feb-19 07:32N 49°19' W 123°11'0 0.1
2015-Feb-19 06:32N 49°19' W 123°11'0 0.2
2015-Feb-19 05:32N 49°18' W 123°11'0 0.1
2015-Feb-19 04:32N 49°18' W 123°11'0 0.0
2015-Feb-19 03:32N 49°18' W 123°11'0 0.1
2015-Feb-19 02:32N 49°18' W 123°11'0 0.1
2015-Feb-19 01:32N 49°18' W 123°11'0 0.2
2015-Feb-19 00:32N 49°18' W 123°11'0 0.0
2015-Feb-18 23:32N 49°18' W 123°11'0 0.0
2015-Feb-18 22:32N 49°18' W 123°11'0 0.1
2015-Feb-18 21:32N 49°18' W 123°11'0 0.0
2015-Feb-18 20:32N 49°18' W 123°11'0 0.0
2015-Feb-18 19:32N 49°18' W 123°11'0 0.1
2015-Feb-18 18:32N 49°18' W 123°11'0 0.0
2015-Feb-18 17:32N 49°18' W 123°11'0 0.0
2015-Feb-18 16:32N 49°18' W 123°11'0 0.0
2015-Feb-18 15:32N 49°18' W 123°11'0 0.0
2015-Feb-18 14:32N 49°18' W 123°11'0 0.1
2015-Feb-18 13:32N 49°18' W 123°11'0 0.1
2015-Feb-18 12:32N 49°18' W 123°11'0 0.0
2015-Feb-18 11:32N 49°18' W 123°11'0 0.0
2015-Feb-18 10:32N 49°18' W 123°11'0 0.0
2015-Feb-18 09:29N 49°18' W 123°11'0 0.0
2015-Feb-18 08:29N 49°18' W 123°11'0 0.1
2015-Feb-18 07:32N 49°18' W 123°11'0 0.0
2015-Feb-18 06:32N 49°18' W 123°11'0 0.0
2015-Feb-18 05:32N 49°18' W 123°11'0 0.1
2015-Feb-18 04:32N 49°19' W 123°11'0 0.1
2015-Feb-18 03:32N 49°18' W 123°11'0 0.1
2015-Feb-18 02:32N 49°19' W 123°11'0 0.1
2015-Feb-18 01:32N 49°18' W 123°11'0 0.2
2015-Feb-18 00:32N 49°18' W 123°11'0 0.1
2015-Feb-17 23:32N 49°18' W 123°11'0 0.0
2015-Feb-17 22:32N 49°18' W 123°11'0 0.0
2015-Feb-17 21:32N 49°18' W 123°11'0 0.0
2015-Feb-17 20:32N 49°18' W 123°11'0 0.0
2015-Feb-17 19:32N 49°18' W 123°11'0 0.1
2015-Feb-17 17:32N 49°18' W 123°11'0 0.0
2015-Feb-17 16:32N 49°18' W 123°11'0 0.0
2015-Feb-17 15:32N 49°18' W 123°11'0 0.0
2015-Feb-17 14:32N 49°18' W 123°11'0 0.2
2015-Feb-17 13:32N 49°18' W 123°11'0 0.1
2015-Feb-17 12:32N 49°18' W 123°11'0 0.0
2015-Feb-17 11:32N 49°19' W 123°11'0 0.0
2015-Feb-17 10:32N 49°18' W 123°11'0 0.0
2015-Feb-17 09:32N 49°18' W 123°11'0 0.0
2015-Feb-17 08:32N 49°18' W 123°11'0 0.0
2015-Feb-17 07:32N 49°19' W 123°11'0 0.1
2015-Feb-17 06:32N 49°19' W 123°11'0 0.0
2015-Feb-17 05:32N 49°19' W 123°11'0 0.1
2015-Feb-17 04:32N 49°19' W 123°11'0 0.0
2015-Feb-17 03:32N 49°19' W 123°11'0 0.1
2015-Feb-17 02:32N 49°18' W 123°11'0 0.1
2015-Feb-17 01:29N 49°18' W 123°11'0 0.1
2015-Feb-17 00:32N 49°18' W 123°11'0 0.1
2015-Feb-16 23:32N 49°18' W 123°11'0 0.0
2015-Feb-16 22:32N 49°18' W 123°11'0 0.0
2015-Feb-16 21:32N 49°18' W 123°11'0 0.0
2015-Feb-16 20:32N 49°18' W 123°11'0 0.0
2015-Feb-16 19:32N 49°18' W 123°11'0 0.0
2015-Feb-16 18:32N 49°18' W 123°11'0 0.1
2015-Feb-16 17:32N 49°18' W 123°11'0 0.1
2015-Feb-16 16:32N 49°18' W 123°11'0 0.0
2015-Feb-16 15:32N 49°18' W 123°11'0 0.0
2015-Feb-16 14:32N 49°18' W 123°11'0 0.0
2015-Feb-16 13:32N 49°18' W 123°11'0 0.1
2015-Feb-16 12:32N 49°19' W 123°11'0 0.1
2015-Feb-16 11:32N 49°19' W 123°11'0 0.0
2015-Feb-16 10:32N 49°18' W 123°11'2 1.7
2015-Feb-16 09:33N 49°19' W 123°09'3 3.0
2015-Feb-16 08:31N 49°17' W 123°05'0 0.0
2015-Feb-16 07:31N 49°17' W 123°05'0 0.0
2015-Feb-16 06:31N 49°17' W 123°05'0 0.0
2015-Feb-16 05:31N 49°17' W 123°05'0 0.0
2015-Feb-16 04:31N 49°17' W 123°05'0 0.0
2015-Feb-16 03:31N 49°17' W 123°05'0 0.0
2015-Feb-16 02:31N 49°17' W 123°05'0 0.0
2015-Feb-16 01:31N 49°17' W 123°05'0 0.0
2015-Feb-16 00:31N 49°17' W 123°05'0 0.1
2015-Feb-15 23:34N 49°17' W 123°05'0 0.1
2015-Feb-15 22:31N 49°17' W 123°05'0 0.0
2015-Feb-15 21:31N 49°17' W 123°05'0 0.0
2015-Feb-15 20:31N 49°17' W 123°05'0 0.0
2015-Feb-15 19:31N 49°17' W 123°05'0 0.0
2015-Feb-15 18:31N 49°17' W 123°05'0 0.0
2015-Feb-15 17:31N 49°17' W 123°05'0 0.0
2015-Feb-15 16:31N 49°17' W 123°05'0 0.0
2015-Feb-15 15:31N 49°17' W 123°05'0 0.0
2015-Feb-15 14:31N 49°17' W 123°05'0 0.0
2015-Feb-15 13:31N 49°17' W 123°05'0 0.0
2015-Feb-15 12:31N 49°17' W 123°05'0 0.0
2015-Feb-15 11:31N 49°17' W 123°05'0 0.0
2015-Feb-15 10:31N 49°17' W 123°05'0 0.0
2015-Feb-15 09:31N 49°17' W 123°05'  
Track history (hours):
 
Tides and Currents Weather Stations Pressure Air Temp Water Temp Dewpoint Dewpoint Depression Visibility Wind Speed Wind Dir Waves Ship Positions

Jalma Topic

Last reported at 2015-Feb-25 09:24 UTC. Time now 2015-Feb-28 17:28 UTC.
Position N 48°17' W 125°38'.

Length 183 m; draft 10.1 m.

Type: Cargo ship. MMSI: 636012871.

Date/timePositionNaut miles runAvg speedWind from/ knotsBaromVisibWave heightAir tempDewpointWater temp
2015-Feb-25 09:24N 48°17' W 125°38'1112.7
2015-Feb-25 08:33N 48°23' W 125°25'1212.4
2015-Feb-25 07:33N 48°30' W 125°10'1313.0
2015-Feb-25 06:33N 48°31' W 124°50'1312.6
2015-Feb-25 05:33N 48°27' W 124°32'1312.7
2015-Feb-25 04:33N 48°23' W 124°14'1212.4
2015-Feb-25 03:33N 48°18' W 123°57'1212.2
2015-Feb-25 02:33N 48°16' W 123°39'1010.3
2015-Feb-25 01:34N 48°21' W 123°25'9 8.8
2015-Feb-25 00:33N 48°25' W 123°13'1414.0
2015-Feb-24 23:33N 48°39' W 123°14'1212.0
2015-Feb-24 22:34N 48°47' W 123°01'1313.3
2015-Feb-24 21:33N 48°57' W 123°14'1212.0
2015-Feb-24 20:33N 49°08' W 123°23'1212.3
2015-Feb-24 19:33N 49°19' W 123°16'8 7.7
2015-Feb-24 18:33N 49°18' W 123°04'0 0.0
2015-Feb-24 17:32N 49°18' W 123°04'0 0.1
2015-Feb-24 16:32N 49°18' W 123°04'0 0.0
2015-Feb-24 15:32N 49°18' W 123°04'0 0.0
2015-Feb-24 14:31N 49°18' W 123°04'0 0.0
2015-Feb-24 13:31N 49°18' W 123°04'0 0.2
2015-Feb-24 12:31N 49°18' W 123°04'0 0.1
2015-Feb-24 11:31N 49°18' W 123°04'0 0.0
2015-Feb-24 10:31N 49°18' W 123°04'0 0.0
2015-Feb-24 09:31N 49°18' W 123°04'0 0.0
2015-Feb-24 08:31N 49°18' W 123°04'0 0.0
2015-Feb-24 07:31N 49°18' W 123°04'0 0.1
2015-Feb-24 06:31N 49°18' W 123°04'0 0.2
2015-Feb-24 05:31N 49°18' W 123°04'0 0.0
2015-Feb-24 04:31N 49°18' W 123°04'0 0.0
2015-Feb-24 03:28N 49°18' W 123°04'0 0.0
2015-Feb-24 02:31N 49°18' W 123°04'0 0.0
2015-Feb-24 01:31N 49°18' W 123°04'0 0.1
2015-Feb-24 00:31N 49°18' W 123°04'0 0.1
2015-Feb-23 23:31N 49°18' W 123°04'0 0.1
2015-Feb-23 22:31N 49°18' W 123°04'0 0.2
2015-Feb-23 21:31N 49°18' W 123°04'0 0.0
2015-Feb-23 20:31N 49°18' W 123°04'0 0.0
2015-Feb-23 19:31N 49°18' W 123°04'0 0.0
2015-Feb-23 18:33N 49°18' W 123°04'1 0.6
2015-Feb-23 17:31N 49°17' W 123°05'0 0.0
2015-Feb-23 16:31N 49°17' W 123°05'0 0.0
2015-Feb-23 15:31N 49°17' W 123°05'0 0.0
2015-Feb-23 14:31N 49°17' W 123°05'0 0.0
2015-Feb-23 13:31N 49°17' W 123°05'0 0.0
2015-Feb-23 12:31N 49°17' W 123°05'0 0.0
2015-Feb-23 11:31N 49°17' W 123°05'0 0.0
2015-Feb-23 10:31N 49°17' W 123°05'0 0.0
2015-Feb-23 09:31N 49°17' W 123°05'0 0.0
2015-Feb-23 08:31N 49°17' W 123°05'0 0.0
2015-Feb-23 07:31N 49°17' W 123°05'0 0.0
2015-Feb-23 06:31N 49°17' W 123°05'0 0.0
2015-Feb-23 05:31N 49°17' W 123°05'0 0.0
2015-Feb-23 04:31N 49°17' W 123°05'0 0.0
2015-Feb-23 03:31N 49°17' W 123°05'0 0.0
2015-Feb-23 02:31N 49°17' W 123°05'0 0.0
2015-Feb-23 01:31N 49°17' W 123°05'0 0.0
2015-Feb-23 00:31N 49°17' W 123°05'0 0.0
2015-Feb-22 23:31N 49°17' W 123°05'0 0.0
2015-Feb-22 22:31N 49°17' W 123°05'0 0.0
2015-Feb-22 21:31N 49°17' W 123°05'0 0.3
2015-Feb-22 20:33N 49°18' W 123°05'4 4.1
2015-Feb-22 19:32N 49°18' W 123°11'0 0.1
2015-Feb-22 18:32N 49°18' W 123°11'0 0.1
2015-Feb-22 17:29N 49°19' W 123°11'0 0.0
2015-Feb-22 16:32N 49°19' W 123°11'0 0.0
2015-Feb-22 15:32N 49°19' W 123°11'0 0.0
2015-Feb-22 14:32N 49°19' W 123°11'0 0.0
2015-Feb-22 13:32N 49°19' W 123°11'0 0.0
2015-Feb-22 12:32N 49°19' W 123°11'0 0.0
2015-Feb-22 11:32N 49°19' W 123°11'0 0.0
2015-Feb-22 10:32N 49°19' W 123°11'0 0.0
2015-Feb-22 09:32N 49°18' W 123°11'0 0.1
2015-Feb-22 08:26N 49°18' W 123°11'0 0.1
2015-Feb-22 07:32N 49°18' W 123°11'0 0.1
2015-Feb-22 06:32N 49°18' W 123°11'0 0.1
2015-Feb-22 05:32N 49°19' W 123°11'0 0.0
2015-Feb-22 04:32N 49°19' W 123°11'0 0.0
2015-Feb-22 03:32N 49°19' W 123°11'0 0.0
2015-Feb-22 02:32N 49°19' W 123°11'0 0.0
2015-Feb-22 01:32N 49°19' W 123°11'0 0.0
2015-Feb-22 00:32N 49°19' W 123°11'0 0.0
2015-Feb-21 23:32N 49°19' W 123°11'0 0.0
2015-Feb-21 22:32N 49°19' W 123°11'0 0.0
2015-Feb-21 21:32N 49°19' W 123°11'0 0.1
2015-Feb-21 20:32N 49°18' W 123°11'0 0.0
2015-Feb-21 19:32N 49°18' W 123°11'0 0.1
2015-Feb-21 18:32N 49°18' W 123°11'0 0.1
2015-Feb-21 17:32N 49°19' W 123°11'0 0.0
2015-Feb-21 16:32N 49°19' W 123°11'0 0.1
2015-Feb-21 15:32N 49°18' W 123°11'0 0.0
2015-Feb-21 14:32N 49°18' W 123°11'0 0.0
2015-Feb-21 13:32N 49°18' W 123°11'0 0.0
2015-Feb-21 12:32N 49°18' W 123°11'0 0.0
2015-Feb-21 11:32N 49°19' W 123°11'0 0.0
2015-Feb-21 10:32N 49°19' W 123°11'0 0.0
2015-Feb-21 09:32N 49°19' W 123°11'0 0.0
2015-Feb-21 08:32N 49°19' W 123°11'0 0.2
2015-Feb-21 07:32N 49°18' W 123°11'0 0.0
2015-Feb-21 06:32N 49°18' W 123°11'0 0.1
2015-Feb-21 05:29N 49°18' W 123°11'0 0.1
2015-Feb-21 04:32N 49°19' W 123°11'0 0.1
2015-Feb-21 03:32N 49°18' W 123°11'0 0.0
2015-Feb-21 02:32N 49°18' W 123°11'0 0.0
2015-Feb-21 01:32N 49°18' W 123°11'0 0.0
2015-Feb-21 00:32N 49°18' W 123°11'0 0.0
2015-Feb-20 23:29N 49°18' W 123°11'0 0.0
2015-Feb-20 22:32N 49°18' W 123°11'0 0.0
2015-Feb-20 21:32N 49°18' W 123°11'0 0.0
2015-Feb-20 20:32N 49°18' W 123°11'0 0.0
2015-Feb-20 19:32N 49°18' W 123°11'0 0.1
2015-Feb-20 18:32N 49°18' W 123°11'0 0.0
2015-Feb-20 17:32N 49°18' W 123°11'0 0.0
2015-Feb-20 16:29N 49°18' W 123°11'0 0.0
2015-Feb-20 15:32N 49°18' W 123°11'0 0.0
2015-Feb-20 14:32N 49°18' W 123°11'0 0.1
2015-Feb-20 13:32N 49°18' W 123°11'0 0.0
2015-Feb-20 12:32N 49°18' W 123°11'0 0.0
2015-Feb-20 11:32N 49°18' W 123°11'0 0.0
2015-Feb-20 10:32N 49°18' W 123°11'0 0.0
2015-Feb-20 09:32N 49°18' W 123°11'0 0.0
2015-Feb-20 08:32N 49°18' W 123°11'0 0.0
2015-Feb-20 07:32N 49°18' W 123°11'0 0.1
2015-Feb-20 06:29N 49°18' W 123°11'0 0.1
2015-Feb-20 05:29N 49°18' W 123°11'0 0.0
2015-Feb-20 04:32N 49°18' W 123°11'0 0.1
2015-Feb-20 03:32N 49°18' W 123°11'0 0.0
2015-Feb-20 02:29N 49°18' W 123°11'0 0.0
2015-Feb-20 01:29N 49°18' W 123°11'0 0.0
2015-Feb-20 00:32N 49°18' W 123°11'0 0.0
2015-Feb-19 23:32N 49°18' W 123°11'0 0.0
2015-Feb-19 22:32N 49°18' W 123°11'0 0.0
2015-Feb-19 21:32N 49°18' W 123°11'0 0.1
2015-Feb-19 20:32N 49°19' W 123°11'0 0.0
2015-Feb-19 19:32N 49°18' W 123°11'0 0.1
2015-Feb-19 18:32N 49°18' W 123°11'0 0.0
2015-Feb-19 17:32N 49°18' W 123°11'0 0.0
2015-Feb-19 16:32N 49°18' W 123°11'0 0.0
2015-Feb-19 15:32N 49°18' W 123°11'0 0.0
2015-Feb-19 14:32N 49°18' W 123°11'0 0.1
2015-Feb-19 13:32N 49°18' W 123°11'0 0.2
2015-Feb-19 12:32N 49°18' W 123°11'0 0.0
2015-Feb-19 11:32N 49°18' W 123°11'0 0.0
2015-Feb-19 10:32N 49°19' W 123°11'0 0.0
2015-Feb-19 09:32N 49°18' W 123°11'0 0.0
2015-Feb-19 08:32N 49°18' W 123°11'0 0.0
2015-Feb-19 07:32N 49°19' W 123°11'0 0.1
2015-Feb-19 06:32N 49°19' W 123°11'0 0.2
2015-Feb-19 05:32N 49°18' W 123°11'0 0.1
2015-Feb-19 04:32N 49°18' W 123°11'0 0.0
2015-Feb-19 03:32N 49°18' W 123°11'0 0.1
2015-Feb-19 02:32N 49°18' W 123°11'0 0.1
2015-Feb-19 01:32N 49°18' W 123°11'0 0.2
2015-Feb-19 00:32N 49°18' W 123°11'0 0.0
2015-Feb-18 23:32N 49°18' W 123°11'0 0.0
2015-Feb-18 22:32N 49°18' W 123°11'0 0.1
2015-Feb-18 21:32N 49°18' W 123°11'0 0.0
2015-Feb-18 20:32N 49°18' W 123°11'0 0.0
2015-Feb-18 19:32N 49°18' W 123°11'0 0.1
2015-Feb-18 18:32N 49°18' W 123°11'0 0.0
2015-Feb-18 17:32N 49°18' W 123°11'0 0.0
2015-Feb-18 16:32N 49°18' W 123°11'0 0.0
2015-Feb-18 15:32N 49°18' W 123°11'0 0.0
2015-Feb-18 14:32N 49°18' W 123°11'0 0.1
2015-Feb-18 13:32N 49°18' W 123°11'0 0.1
2015-Feb-18 12:32N 49°18' W 123°11'0 0.0
2015-Feb-18 11:32N 49°18' W 123°11'0 0.0
2015-Feb-18 10:32N 49°18' W 123°11'0 0.0
2015-Feb-18 09:29N 49°18' W 123°11'0 0.0
2015-Feb-18 08:29N 49°18' W 123°11'0 0.1
2015-Feb-18 07:32N 49°18' W 123°11'0 0.0
2015-Feb-18 06:32N 49°18' W 123°11'0 0.0
2015-Feb-18 05:32N 49°18' W 123°11'0 0.1
2015-Feb-18 04:32N 49°19' W 123°11'0 0.1
2015-Feb-18 03:32N 49°18' W 123°11'0 0.1
2015-Feb-18 02:32N 49°19' W 123°11'0 0.1
2015-Feb-18 01:32N 49°18' W 123°11'0 0.2
2015-Feb-18 00:32N 49°18' W 123°11'0 0.1
2015-Feb-17 23:32N 49°18' W 123°11'0 0.0
2015-Feb-17 22:32N 49°18' W 123°11'0 0.0
2015-Feb-17 21:32N 49°18' W 123°11'0 0.0
2015-Feb-17 20:32N 49°18' W 123°11'0 0.0
2015-Feb-17 19:32N 49°18' W 123°11'0 0.1
2015-Feb-17 17:32N 49°18' W 123°11'0 0.0
2015-Feb-17 16:32N 49°18' W 123°11'0 0.0
2015-Feb-17 15:32N 49°18' W 123°11'0 0.0
2015-Feb-17 14:32N 49°18' W 123°11'0 0.2
2015-Feb-17 13:32N 49°18' W 123°11'0 0.1
2015-Feb-17 12:32N 49°18' W 123°11'0 0.0
2015-Feb-17 11:32N 49°19' W 123°11'0 0.0
2015-Feb-17 10:32N 49°18' W 123°11'0 0.0
2015-Feb-17 09:32N 49°18' W 123°11'0 0.0
2015-Feb-17 08:32N 49°18' W 123°11'0 0.0
2015-Feb-17 07:32N 49°19' W 123°11'0 0.1
2015-Feb-17 06:32N 49°19' W 123°11'0 0.0
2015-Feb-17 05:32N 49°19' W 123°11'0 0.1
2015-Feb-17 04:32N 49°19' W 123°11'0 0.0
2015-Feb-17 03:32N 49°19' W 123°11'0 0.1
2015-Feb-17 02:32N 49°18' W 123°11'0 0.1
2015-Feb-17 01:29N 49°18' W 123°11'0 0.1
2015-Feb-17 00:32N 49°18' W 123°11'0 0.1
2015-Feb-16 23:32N 49°18' W 123°11'0 0.0
2015-Feb-16 22:32N 49°18' W 123°11'0 0.0
2015-Feb-16 21:32N 49°18' W 123°11'0 0.0
2015-Feb-16 20:32N 49°18' W 123°11'0 0.0
2015-Feb-16 19:32N 49°18' W 123°11'0 0.0
2015-Feb-16 18:32N 49°18' W 123°11'0 0.1
2015-Feb-16 17:32N 49°18' W 123°11'0 0.1
2015-Feb-16 16:32N 49°18' W 123°11'0 0.0
2015-Feb-16 15:32N 49°18' W 123°11'0 0.0
2015-Feb-16 14:32N 49°18' W 123°11'0 0.0
2015-Feb-16 13:32N 49°18' W 123°11'0 0.1
2015-Feb-16 12:32N 49°19' W 123°11'0 0.1
2015-Feb-16 11:32N 49°19' W 123°11'0 0.0
2015-Feb-16 10:32N 49°18' W 123°11'2 1.7
2015-Feb-16 09:33N 49°19' W 123°09'3 3.0
2015-Feb-16 08:31N 49°17' W 123°05'0 0.0
2015-Feb-16 07:31N 49°17' W 123°05'0 0.0
2015-Feb-16 06:31N 49°17' W 123°05'0 0.0
2015-Feb-16 05:31N 49°17' W 123°05'0 0.0
2015-Feb-16 04:31N 49°17' W 123°05'0 0.0
2015-Feb-16 03:31N 49°17' W 123°05'0 0.0
2015-Feb-16 02:31N 49°17' W 123°05'0 0.0
2015-Feb-16 01:31N 49°17' W 123°05'0 0.0
2015-Feb-16 00:31N 49°17' W 123°05'0 0.1
2015-Feb-15 23:34N 49°17' W 123°05'0 0.1
2015-Feb-15 22:31N 49°17' W 123°05'0 0.0
2015-Feb-15 21:31N 49°17' W 123°05'0 0.0
2015-Feb-15 20:31N 49°17' W 123°05'0 0.0
2015-Feb-15 19:31N 49°17' W 123°05'0 0.0
2015-Feb-15 18:31N 49°17' W 123°05'0 0.0
2015-Feb-15 17:31N 49°17' W 123°05'0 0.0
2015-Feb-15 16:31N 49°17' W 123°05'0 0.0
2015-Feb-15 15:31N 49°17' W 123°05'0 0.0
2015-Feb-15 14:31N 49°17' W 123°05'0 0.0
2015-Feb-15 13:31N 49°17' W 123°05'0 0.0
2015-Feb-15 12:31N 49°17' W 123°05'0 0.0
2015-Feb-15 11:31N 49°17' W 123°05'0 0.0
2015-Feb-15 10:31N 49°17' W 123°05'0 0.0
2015-Feb-15 09:31N 49°17' W 123°05'  

Dump ship's entire track history